createdAt,value
2022-09-30T00:01:14.485Z,1.48
2022-09-30T00:03:41.134Z,1.30
2022-09-30T00:06:09.117Z,4.30
2022-09-30T00:08:39.046Z,1.80
2022-09-30T00:11:14.965Z,2.00
2022-09-30T00:13:41.630Z,1.80
2022-09-30T00:16:10.268Z,1.80
2022-09-30T00:18:38.224Z,1.52
2022-09-30T00:21:06.236Z,1.40
2022-09-30T00:23:33.138Z,2.08
2022-09-30T00:26:01.628Z,1.52
2022-09-30T00:28:29.365Z,1.33
2022-09-30T00:31:05.631Z,1.58
2022-09-30T00:33:32.844Z,1.73
2022-09-30T00:36:00.361Z,1.42
2022-09-30T00:38:27.251Z,1.65
2022-09-30T00:40:54.394Z,1.95
2022-09-30T00:43:41.238Z,5.40
2022-09-30T00:46:19.374Z,2.00
2022-09-30T00:48:53.988Z,1.20
2022-09-30T00:51:31.461Z,1.50
2022-09-30T00:54:03.129Z,1.70
2022-09-30T00:56:34.575Z,1.77
2022-09-30T00:59:04.937Z,1.63
2022-09-30T01:01:32.240Z,1.33
2022-09-30T01:04:06.172Z,1.60
2022-09-30T01:06:32.773Z,2.30
2022-09-30T01:09:01.180Z,1.50
2022-09-30T01:11:28.993Z,1.20
2022-09-30T01:14:00.579Z,1.20
2022-09-30T01:16:40.091Z,1.75
2022-09-30T01:19:40.735Z,1.38
2022-09-30T01:22:19.559Z,1.33
2022-09-30T01:25:10.377Z,1.15
2022-09-30T01:27:48.328Z,1.30
2022-09-30T01:30:26.412Z,1.33
2022-09-30T01:32:59.108Z,1.67
2022-09-30T01:36:00.079Z,2.50
2022-09-30T01:38:30.869Z,1.98
2022-09-30T01:41:09.144Z,2.08
2022-09-30T01:43:53.280Z,1.85
2022-09-30T01:47:00.293Z,1.00
2022-09-30T01:49:42.184Z,0.93
2022-09-30T01:52:11.009Z,2.88
2022-09-30T01:54:50.125Z,1.30
2022-09-30T01:57:26.111Z,1.48
2022-09-30T02:00:00.589Z,1.48
2022-09-30T02:02:31.080Z,1.45
2022-09-30T02:05:10.225Z,3.55
2022-09-30T02:07:41.998Z,1.30
2022-09-30T02:10:14.385Z,1.52
2022-09-30T02:12:48.267Z,1.58
2022-09-30T02:15:31.053Z,1.43
2022-09-30T02:18:12.542Z,1.35
2022-09-30T02:20:42.112Z,0.95
2022-09-30T02:23:16.284Z,1.00
2022-09-30T02:25:47.366Z,0.90
2022-09-30T02:28:22.403Z,1.55
2022-09-30T02:30:53.693Z,0.90
2022-09-30T02:33:28.501Z,0.98
2022-09-30T02:38:32.202Z,1.08
2022-09-30T02:41:06.655Z,0.65
2022-09-30T02:43:34.355Z,1.73
2022-09-30T02:46:24.035Z,1.00
2022-09-30T02:49:04.651Z,2.85
2022-09-30T02:51:34.131Z,1.13
2022-09-30T02:54:19.198Z,0.98
2022-09-30T02:56:56.805Z,2.85
2022-09-30T02:59:26.049Z,0.80
2022-09-30T03:01:52.946Z,0.63
2022-09-30T03:04:24.157Z,0.82
2022-09-30T03:06:51.507Z,1.27
2022-09-30T03:09:18.261Z,0.75
2022-09-30T03:11:47.813Z,0.90
2022-09-30T03:14:32.193Z,4.97
2022-09-30T03:17:17.438Z,2.73
2022-09-30T03:22:25.319Z,1.30
2022-09-30T03:25:09.794Z,1.73
2022-09-30T03:28:00.447Z,0.90
2022-09-30T03:30:28.112Z,0.80
2022-09-30T03:33:08.367Z,0.70
2022-09-30T03:35:47.576Z,2.10
2022-09-30T03:38:26.345Z,0.73
2022-09-30T03:41:03.395Z,2.47
2022-09-30T03:44:02.234Z,1.85
2022-09-30T03:46:43.877Z,2.08
2022-09-30T03:49:23.411Z,2.85
2022-09-30T03:51:51.144Z,1.70
2022-09-30T03:54:17.963Z,2.80
2022-09-30T03:56:44.675Z,2.95
2022-09-30T03:59:28.031Z,1.42
2022-09-30T04:01:57.133Z,1.20
2022-09-30T04:04:23.991Z,1.20
2022-09-30T04:06:51.143Z,4.00
2022-09-30T04:09:17.810Z,1.00
2022-09-30T04:11:44.563Z,5.10
2022-09-30T04:14:11.208Z,1.30
2022-09-30T04:16:37.983Z,1.33
2022-09-30T04:19:04.769Z,3.75
2022-09-30T04:21:31.437Z,1.10
2022-09-30T04:23:58.040Z,2.47
2022-09-30T04:26:24.671Z,1.15
2022-09-30T04:28:52.566Z,1.20
2022-09-30T04:31:21.462Z,1.40
2022-09-30T04:33:48.220Z,1.63
2022-09-30T04:36:14.932Z,1.00
2022-09-30T04:38:41.615Z,1.75
2022-09-30T04:41:11.070Z,2.00
2022-09-30T04:43:37.696Z,1.55
2022-09-30T04:46:04.842Z,1.15
2022-09-30T04:48:31.492Z,2.88
2022-09-30T04:51:00.188Z,0.98
2022-09-30T04:53:26.939Z,2.30
2022-09-30T04:55:59.886Z,1.02
2022-09-30T04:58:27.179Z,0.95
2022-09-30T05:01:10.115Z,1.33
2022-09-30T05:03:36.950Z,0.88
2022-09-30T05:06:05.157Z,2.40
2022-09-30T05:08:35.192Z,5.38
2022-09-30T05:11:09.605Z,0.90
2022-09-30T05:13:39.851Z,0.90
2022-09-30T05:16:07.662Z,3.45
2022-09-30T05:18:35.300Z,2.85
2022-09-30T05:21:03.205Z,3.25
2022-09-30T05:23:31.508Z,6.97
2022-09-30T05:25:59.146Z,0.90
2022-09-30T05:28:26.070Z,0.75
2022-09-30T05:31:02.364Z,1.08
2022-09-30T05:33:30.023Z,0.80
2022-09-30T05:36:02.043Z,0.82
2022-09-30T05:38:28.669Z,0.73
2022-09-30T05:40:55.672Z,1.00
2022-09-30T05:43:22.484Z,0.88
2022-09-30T05:45:53.473Z,0.93
2022-09-30T05:48:20.485Z,1.13
2022-09-30T05:50:51.700Z,1.20
2022-09-30T05:53:18.773Z,1.70
2022-09-30T05:55:47.559Z,2.22
2022-09-30T05:58:15.557Z,1.13
2022-09-30T06:00:43.558Z,1.15
2022-09-30T06:03:10.775Z,1.10
2022-09-30T06:05:38.006Z,1.02
2022-09-30T06:08:07.219Z,0.73
2022-09-30T06:10:35.502Z,0.80
2022-09-30T06:13:05.499Z,1.40
2022-09-30T06:15:32.650Z,0.90
2022-09-30T06:17:59.292Z,1.67
2022-09-30T06:20:26.175Z,1.77
2022-09-30T06:22:52.789Z,1.17
2022-09-30T06:25:19.411Z,1.10
2022-09-30T06:27:49.062Z,1.20
2022-09-30T06:30:15.931Z,1.10
2022-09-30T06:32:42.665Z,2.78
2022-09-30T06:35:10.581Z,0.95
2022-09-30T06:37:38.010Z,1.27
2022-09-30T06:40:06.371Z,2.70
2022-09-30T06:42:33.984Z,1.13
2022-09-30T06:45:00.709Z,1.08
2022-09-30T06:47:27.501Z,0.85
2022-09-30T06:49:58.724Z,3.35
2022-09-30T06:52:27.132Z,1.02
2022-09-30T06:54:56.742Z,0.88
2022-09-30T06:57:26.814Z,1.08
2022-09-30T06:59:54.633Z,4.03
2022-09-30T07:02:22.242Z,1.08
2022-09-30T07:04:49.160Z,1.52
2022-09-30T07:07:15.915Z,3.13
2022-09-30T07:09:43.464Z,3.70
2022-09-30T07:12:10.576Z,1.38
2022-09-30T07:14:37.318Z,1.42
2022-09-30T07:17:06.163Z,1.17
2022-09-30T07:19:34.520Z,0.88
2022-09-30T07:22:22.268Z,1.67
2022-09-30T07:24:48.985Z,7.03
2022-09-30T07:27:16.093Z,0.93
2022-09-30T07:30:07.614Z,0.90
2022-09-30T07:32:31.115Z,1.00
2022-09-30T07:34:57.833Z,0.98
2022-09-30T07:37:26.077Z,2.42
2022-09-30T07:39:53.232Z,2.25
2022-09-30T07:42:22.689Z,5.78
2022-09-30T07:44:52.305Z,5.47
2022-09-30T07:47:20.356Z,1.20
2022-09-30T07:49:47.478Z,2.88
2022-09-30T07:52:14.569Z,1.10
2022-09-30T07:54:46.601Z,0.90
2022-09-30T07:57:15.131Z,3.92
2022-09-30T07:59:42.924Z,1.00
2022-09-30T08:02:15.747Z,1.27
2022-09-30T08:04:44.302Z,1.13
2022-09-30T08:07:11.799Z,0.95
2022-09-30T08:09:38.670Z,1.30
2022-09-30T08:12:05.552Z,0.80
2022-09-30T08:14:32.806Z,0.80
2022-09-30T08:17:00.626Z,0.90
2022-09-30T08:19:29.802Z,0.85
2022-09-30T08:21:57.199Z,0.80
2022-09-30T08:24:24.942Z,0.95
2022-09-30T08:26:52.427Z,0.80
2022-09-30T08:29:35.755Z,0.70
2022-09-30T08:32:06.147Z,0.68
2022-09-30T08:34:35.782Z,0.75
2022-09-30T08:37:07.792Z,1.60
2022-09-30T08:39:35.846Z,0.50
2022-09-30T08:42:35.625Z,0.40
2022-09-30T08:45:20.570Z,1.65
2022-09-30T08:47:57.191Z,1.00
2022-09-30T08:50:35.061Z,1.60
2022-09-30T08:53:05.562Z,0.50
2022-09-30T08:55:43.722Z,0.63
2022-09-30T08:58:22.291Z,0.40
2022-09-30T09:00:52.302Z,0.47
2022-09-30T09:03:20.563Z,6.22
2022-09-30T09:06:16.752Z,0.40
2022-09-30T09:08:58.628Z,0.50
2022-09-30T09:11:41.181Z,0.30
2022-09-30T09:14:22.848Z,0.40
2022-09-30T09:17:17.589Z,3.15
2022-09-30T09:20:17.921Z,3.72
2022-09-30T09:22:46.229Z,0.77
2022-09-30T09:25:16.072Z,0.60
2022-09-30T09:27:54.149Z,0.60
2022-09-30T09:30:23.906Z,0.50
2022-09-30T09:32:57.265Z,0.45
2022-09-30T09:35:35.698Z,0.65
2022-09-30T09:38:25.343Z,0.85
2022-09-30T09:40:57.787Z,0.65
2022-09-30T09:43:40.934Z,0.57
2022-09-30T09:46:15.410Z,0.80
2022-09-30T09:48:42.752Z,0.57
2022-09-30T09:51:34.277Z,0.45
2022-09-30T09:54:01.995Z,0.55
2022-09-30T09:56:32.523Z,0.40
2022-09-30T09:59:06.981Z,0.60
2022-09-30T10:01:35.612Z,0.50
2022-09-30T10:04:11.709Z,3.03
2022-09-30T10:07:14.862Z,1.23
2022-09-30T10:09:43.155Z,0.93
2022-09-30T10:12:09.763Z,0.77
2022-09-30T10:14:52.877Z,9.45
2022-09-30T10:17:29.524Z,0.70
2022-09-30T10:20:02.030Z,4.10
2022-09-30T10:22:31.975Z,0.85
2022-09-30T10:25:09.692Z,1.65
2022-09-30T10:27:36.477Z,0.80
2022-09-30T10:30:04.129Z,0.60
2022-09-30T10:32:32.421Z,0.77
2022-09-30T10:35:17.015Z,0.80
2022-09-30T10:37:52.670Z,0.63
2022-09-30T10:40:22.710Z,0.95
2022-09-30T10:42:49.479Z,0.60
2022-09-30T10:45:23.429Z,0.70
2022-09-30T10:47:53.927Z,0.80
2022-09-30T10:50:26.953Z,0.70
2022-09-30T10:53:15.921Z,0.80
2022-09-30T10:55:44.878Z,4.40
2022-09-30T10:58:43.868Z,2.05
2022-09-30T11:01:26.085Z,3.47
2022-09-30T11:04:03.481Z,1.10
2022-09-30T11:06:32.928Z,2.17
2022-09-30T11:09:11.796Z,1.90
2022-09-30T11:11:42.436Z,3.72
2022-09-30T11:14:38.843Z,1.70
2022-09-30T11:17:24.272Z,3.83
2022-09-30T11:20:17.656Z,2.20
2022-09-30T11:22:52.920Z,1.90
2022-09-30T11:25:27.079Z,1.60
2022-09-30T11:27:59.584Z,2.28
2022-09-30T11:30:49.485Z,1.70
2022-09-30T11:33:53.841Z,2.25
2022-09-30T11:36:49.600Z,1.70
2022-09-30T11:39:53.725Z,3.42
2022-09-30T11:42:38.653Z,1.42
2022-09-30T11:45:09.137Z,3.30
2022-09-30T11:47:48.028Z,1.52
2022-09-30T11:50:28.043Z,1.30
2022-09-30T11:53:07.411Z,2.85
2022-09-30T11:55:36.734Z,1.65
2022-09-30T11:58:22.286Z,1.58
2022-09-30T12:00:59.105Z,3.88
2022-09-30T12:03:31.708Z,3.20
2022-09-30T12:06:03.884Z,1.30
2022-09-30T12:08:36.558Z,7.45
2022-09-30T12:11:10.151Z,1.55
2022-09-30T12:13:42.169Z,1.50
2022-09-30T12:16:16.518Z,7.10
2022-09-30T12:18:51.366Z,2.58
2022-09-30T12:21:22.729Z,1.15
2022-09-30T12:24:10.319Z,1.20
2022-09-30T12:26:37.617Z,0.98
2022-09-30T12:29:36.560Z,1.20
2022-09-30T12:32:12.090Z,1.02
2022-09-30T12:35:06.185Z,1.10
2022-09-30T12:37:52.092Z,1.40
2022-09-30T12:40:40.206Z,1.13
2022-09-30T12:43:18.627Z,1.50
2022-09-30T12:46:03.057Z,1.65
2022-09-30T12:48:47.728Z,1.60
2022-09-30T12:51:31.400Z,2.42
2022-09-30T12:54:02.014Z,1.40
2022-09-30T12:56:30.755Z,4.40
2022-09-30T12:58:58.043Z,1.30
2022-09-30T13:01:35.063Z,1.40
2022-09-30T13:04:01.728Z,0.90
2022-09-30T13:06:48.336Z,1.33
2022-09-30T13:09:20.784Z,1.50
2022-09-30T13:12:12.424Z,1.10
2022-09-30T13:14:43.368Z,2.08
2022-09-30T13:17:13.482Z,3.60
2022-09-30T13:19:44.496Z,2.70
2022-09-30T13:22:20.315Z,3.13
2022-09-30T13:25:05.245Z,3.55
2022-09-30T13:27:42.509Z,2.85
2022-09-30T13:30:18.217Z,3.03
2022-09-30T13:33:02.399Z,1.90
2022-09-30T13:35:41.841Z,7.53
2022-09-30T13:38:14.244Z,1.30
2022-09-30T13:41:01.723Z,1.20
2022-09-30T13:43:35.819Z,1.27
2022-09-30T13:46:13.037Z,1.55
2022-09-30T13:48:43.599Z,1.42
2022-09-30T13:51:16.408Z,2.03
2022-09-30T13:53:51.278Z,1.90
2022-09-30T13:59:11.131Z,1.50
2022-09-30T14:01:56.491Z,2.50
2022-09-30T14:04:41.462Z,4.35
2022-09-30T14:07:08.488Z,1.50
2022-09-30T14:10:03.364Z,2.08
2022-09-30T14:13:00.643Z,4.55
2022-09-30T14:15:47.144Z,3.65
2022-09-30T14:18:28.202Z,2.35
2022-09-30T14:20:54.779Z,5.07
2022-09-30T14:23:21.636Z,2.30
2022-09-30T14:26:28.036Z,2.53
2022-09-30T14:29:16.435Z,7.65
2022-09-30T14:31:45.850Z,1.60
2022-09-30T14:34:17.185Z,1.08
2022-09-30T14:36:44.852Z,2.05
2022-09-30T14:39:26.346Z,1.90
2022-09-30T14:41:57.824Z,1.33
2022-09-30T14:44:29.627Z,1.63
2022-09-30T14:47:01.451Z,1.92
2022-09-30T14:49:34.736Z,5.10
2022-09-30T14:52:03.430Z,1.85
2022-09-30T14:54:32.344Z,2.20
2022-09-30T14:57:02.361Z,5.75
2022-09-30T14:59:34.738Z,1.40
2022-09-30T15:02:16.277Z,1.42
2022-09-30T15:04:49.797Z,3.05
2022-09-30T15:07:16.489Z,5.07
2022-09-30T15:09:46.252Z,1.40
2022-09-30T15:12:22.784Z,1.60
2022-09-30T15:14:52.440Z,3.20
2022-09-30T15:17:22.263Z,2.35
2022-09-30T15:19:50.517Z,1.15
2022-09-30T15:22:19.156Z,4.82
2022-09-30T15:24:48.402Z,1.33
2022-09-30T15:27:19.296Z,1.10
2022-09-30T15:29:59.888Z,1.10
2022-09-30T15:32:36.662Z,1.35
2022-09-30T15:35:20.724Z,1.00
2022-09-30T15:37:48.177Z,1.02
2022-09-30T15:40:42.604Z,1.20
2022-09-30T15:43:11.906Z,1.10
2022-09-30T15:45:44.125Z,3.42
2022-09-30T15:48:25.785Z,4.03
2022-09-30T15:51:01.257Z,1.20
2022-09-30T15:53:36.997Z,1.20
2022-09-30T15:56:15.987Z,2.30
2022-09-30T15:59:01.726Z,1.05
2022-09-30T16:01:44.079Z,1.88
2022-09-30T16:04:17.347Z,3.88
2022-09-30T16:07:10.008Z,1.40
2022-09-30T16:09:41.796Z,1.52
2022-09-30T16:12:18.288Z,1.33
2022-09-30T16:14:49.414Z,2.05
2022-09-30T16:17:21.196Z,1.50
2022-09-30T16:19:57.598Z,1.42
2022-09-30T16:22:40.721Z,1.65
2022-09-30T16:25:21.515Z,1.77
2022-09-30T16:27:53.532Z,1.58
2022-09-30T16:30:20.723Z,3.30
2022-09-30T16:32:50.906Z,1.80
2022-09-30T16:35:23.445Z,1.80
2022-09-30T16:37:51.631Z,2.08
2022-09-30T16:40:25.467Z,1.63
2022-09-30T16:42:56.010Z,1.95
2022-09-30T16:45:22.958Z,5.80
2022-09-30T16:47:50.604Z,3.22
2022-09-30T16:50:30.004Z,2.35
2022-09-30T16:52:56.681Z,1.88
2022-09-30T16:55:25.320Z,2.83
2022-09-30T16:57:52.876Z,1.70
2022-09-30T17:00:19.573Z,2.17
2022-09-30T17:02:49.618Z,3.78
2022-09-30T17:05:19.104Z,2.15
2022-09-30T17:07:46.971Z,2.33
2022-09-30T17:10:20.082Z,2.20
2022-09-30T17:12:47.017Z,4.45
2022-09-30T17:15:13.795Z,1.88
2022-09-30T17:17:40.405Z,5.40
2022-09-30T17:20:07.462Z,2.25
2022-09-30T17:22:34.058Z,2.95
2022-09-30T17:25:00.783Z,2.08
2022-09-30T17:27:27.492Z,2.50
2022-09-30T17:29:54.130Z,5.75
2022-09-30T17:32:20.718Z,1.95
2022-09-30T17:34:47.308Z,1.83
2022-09-30T17:37:14.671Z,2.13
2022-09-30T17:39:41.377Z,1.80
2022-09-30T17:42:33.844Z,1.80
2022-09-30T17:45:00.768Z,2.08
2022-09-30T17:47:27.624Z,2.55
2022-09-30T17:49:54.276Z,3.15
2022-09-30T17:52:21.258Z,1.70
2022-09-30T17:54:52.225Z,1.95
2022-09-30T17:57:20.883Z,2.00
2022-09-30T17:59:47.600Z,1.75
2022-09-30T18:02:17.514Z,3.45
2022-09-30T18:04:44.894Z,2.13
2022-09-30T18:07:12.772Z,2.05
2022-09-30T18:09:39.929Z,2.63
2022-09-30T18:12:07.522Z,2.10
2022-09-30T18:14:38.403Z,2.10
2022-09-30T18:17:06.433Z,2.00
2022-09-30T18:19:34.719Z,2.28
2022-09-30T18:22:04.257Z,2.38
2022-09-30T18:24:49.392Z,2.08
2022-09-30T18:27:16.414Z,2.20
2022-09-30T18:29:43.024Z,2.78
2022-09-30T18:32:09.694Z,6.30
2022-09-30T18:34:36.454Z,3.83
2022-09-30T18:37:06.711Z,2.83
2022-09-30T18:39:38.216Z,2.92
2022-09-30T18:42:05.798Z,2.90
2022-09-30T18:44:37.604Z,2.70
2022-09-30T18:47:05.459Z,3.10
2022-09-30T18:49:32.645Z,2.75
2022-09-30T18:51:59.792Z,2.85
2022-09-30T18:54:26.408Z,2.70
2022-09-30T18:56:53.027Z,2.90
2022-09-30T18:59:22.050Z,4.35
2022-09-30T19:01:50.672Z,2.30
2022-09-30T19:04:17.387Z,3.90
2022-09-30T19:06:45.127Z,2.92
2022-09-30T19:09:11.727Z,2.80
2022-09-30T19:11:42.805Z,3.67
2022-09-30T19:14:12.458Z,2.40
2022-09-30T19:16:40.232Z,2.42
2022-09-30T19:19:10.493Z,2.67
2022-09-30T19:21:38.712Z,4.57
2022-09-30T19:24:07.131Z,3.33
2022-09-30T19:26:36.364Z,2.75
2022-09-30T19:29:09.662Z,6.43
2022-09-30T19:31:37.635Z,3.20
2022-09-30T19:34:05.401Z,3.08
2022-09-30T19:36:43.268Z,2.90
2022-09-30T19:39:13.859Z,3.28
2022-09-30T19:41:40.662Z,3.50
2022-09-30T19:44:07.415Z,3.22
2022-09-30T19:46:34.079Z,3.00
2022-09-30T19:49:00.673Z,2.80
2022-09-30T19:51:31.054Z,2.90
2022-09-30T19:54:06.272Z,2.88
2022-09-30T19:56:35.384Z,5.05
2022-09-30T19:59:02.568Z,3.10
2022-09-30T20:01:30.625Z,3.30
2022-09-30T20:04:04.791Z,2.80
2022-09-30T20:06:33.235Z,4.00
2022-09-30T20:09:02.401Z,2.92
2022-09-30T20:11:33.739Z,2.92
2022-09-30T20:14:20.504Z,2.75
2022-09-30T20:16:48.593Z,4.93
2022-09-30T20:19:16.501Z,2.90
2022-09-30T20:21:43.434Z,3.30
2022-09-30T20:24:11.733Z,3.55
2022-09-30T20:26:39.139Z,5.75
2022-09-30T20:29:09.079Z,5.10
2022-09-30T20:31:37.933Z,4.47
2022-09-30T20:34:05.043Z,3.90
2022-09-30T20:36:32.148Z,3.92
2022-09-30T20:39:02.670Z,5.82
2022-09-30T20:41:35.958Z,3.88
2022-09-30T20:44:07.811Z,3.67
2022-09-30T20:46:34.957Z,3.45
2022-09-30T20:49:02.854Z,3.80
2022-09-30T20:51:31.136Z,4.00
2022-09-30T20:53:59.692Z,4.50
2022-09-30T20:56:44.056Z,3.88
2022-09-30T20:59:15.816Z,6.00
2022-09-30T21:01:42.821Z,7.18
2022-09-30T21:04:09.612Z,7.63
2022-09-30T21:06:36.220Z,5.40
2022-09-30T21:09:03.752Z,6.55
2022-09-30T21:11:30.689Z,6.00
2022-09-30T21:13:58.191Z,6.03
2022-09-30T21:16:25.575Z,6.22
2022-09-30T21:18:53.326Z,5.85
2022-09-30T21:21:21.666Z,6.53
2022-09-30T21:23:48.838Z,6.20
2022-09-30T21:26:17.415Z,6.75
2022-09-30T21:28:49.360Z,9.48
2022-09-30T21:31:27.650Z,7.53
2022-09-30T21:33:59.042Z,8.73
2022-09-30T21:36:29.013Z,8.15
2022-09-30T21:39:01.391Z,7.63
2022-09-30T21:41:28.344Z,7.93
2022-09-30T21:43:55.788Z,8.50
2022-09-30T21:46:22.465Z,8.38
2022-09-30T21:48:49.655Z,8.63
2022-09-30T21:51:17.119Z,7.90
2022-09-30T21:53:43.789Z,8.23
2022-09-30T21:56:11.946Z,9.00
2022-09-30T21:58:38.986Z,7.68
2022-09-30T22:01:07.081Z,9.05
2022-09-30T22:03:37.898Z,8.57
2022-09-30T22:06:10.207Z,8.70
2022-09-30T22:08:40.790Z,8.50
2022-09-30T22:11:11.277Z,8.45
2022-09-30T22:13:40.860Z,8.40
2022-09-30T22:16:08.014Z,7.30
2022-09-30T22:18:35.643Z,8.10
2022-09-30T22:21:10.960Z,7.30
2022-09-30T22:23:38.003Z,8.02
2022-09-30T22:26:11.647Z,8.25
2022-09-30T22:28:39.195Z,7.93
2022-09-30T22:31:11.895Z,7.93
2022-09-30T22:33:56.965Z,6.97
2022-09-30T22:36:41.921Z,7.95
2022-09-30T22:39:08.711Z,8.77
2022-09-30T22:41:35.968Z,7.55
2022-09-30T22:44:02.735Z,8.55
2022-09-30T22:46:30.004Z,7.47
2022-09-30T22:48:59.418Z,6.57
2022-09-30T22:51:26.858Z,6.82
2022-09-30T22:53:53.544Z,6.85
2022-09-30T22:56:20.240Z,7.85
2022-09-30T22:58:47.246Z,7.32
2022-09-30T23:01:14.311Z,6.53
2022-09-30T23:03:42.471Z,6.82
2022-09-30T23:06:09.499Z,6.63
2022-09-30T23:08:44.659Z,6.43
2022-09-30T23:11:13.531Z,7.93
2022-09-30T23:13:40.220Z,9.65
2022-09-30T23:16:07.573Z,6.78
2022-09-30T23:18:34.644Z,6.22
2022-09-30T23:21:13.860Z,5.97
2022-09-30T23:23:40.689Z,6.85
2022-09-30T23:26:25.320Z,8.32
2022-09-30T23:29:13.171Z,6.57
2022-09-30T23:31:40.240Z,7.07
2022-09-30T23:34:07.930Z,6.75
2022-09-30T23:36:36.699Z,6.45
2022-09-30T23:39:12.725Z,6.85
2022-09-30T23:41:39.896Z,6.68
2022-09-30T23:44:06.921Z,8.50
2022-09-30T23:46:33.533Z,8.00
2022-09-30T23:49:00.171Z,9.25
2022-09-30T23:51:26.877Z,12.18
2022-09-30T23:53:53.572Z,8.45
2022-09-30T23:56:20.301Z,8.65
2022-09-30T23:58:47.560Z,12.50
